Time;durP1;ratioP1;P1;durP2;ratioP2;P2;SDS_P1;SDS_P2;PMS_P1;PMS_P2;Temp;Humidity;BMP_temperature;BMP_pressure;BME280_temperature;BME280_humidity;BME280_pressure;Samples;Min_cycle;Max_cycle;Signal;HPM_P1;HPM_P2
2021/05/18 00:01:15;;;;;;;0.87;0.40;;;;;;;;;;4862048;29;20241;-77
2021/05/18 00:03:43;;;;;;;0.50;0.50;;;;;;;;;;4867206;29;20739;-77
2021/05/18 00:06:11;;;;;;;1.90;0.67;;;;;;;;;;4885165;29;20237;-76
2021/05/18 00:14:08;;;;;;;1.37;0.53;;;;;;;;;;4878955;29;20229;-77
2021/05/18 00:16:36;;;;;;;0.47;0.47;;;;;;;;;;4868032;29;20218;-77
2021/05/18 00:19:05;;;;;;;0.50;0.50;;;;;;;;;;4892688;29;20252;-76
2021/05/18 00:21:34;;;;;;;0.97;0.63;;;;;;;;;;4890771;29;20229;-78
2021/05/18 00:24:03;;;;;;;0.63;0.50;;;;;;;;;;4877150;29;20236;-76
2021/05/18 00:26:31;;;;;;;1.13;0.60;;;;;;;;;;4861494;29;20233;-77
2021/05/18 00:29:04;;;;;;;2.03;1.17;;;;;;;;;;4879538;29;20252;-76
2021/05/18 00:31:34;;;;;;;0.60;0.60;;;;;;;;;;4867777;29;20222;-77
2021/05/18 00:34:02;;;;;;;2.07;0.60;;;;;;;;;;4870913;29;20234;-76
2021/05/18 00:36:30;;;;;;;0.67;0.50;;;;;;;;;;4893372;29;20237;-80
2021/05/18 00:38:59;;;;;;;1.37;0.50;;;;;;;;;;4879518;29;20245;-79
2021/05/18 00:41:27;;;;;;;1.03;0.57;;;;;;;;;;4898912;29;20240;-80
2021/05/18 00:44:01;;;;;;;1.70;0.50;;;;;;;;;;4906732;29;20235;-78
2021/05/18 00:46:29;;;;;;;1.33;0.70;;;;;;;;;;4896249;29;20240;-78
2021/05/18 00:49:03;;;;;;;1.17;0.70;;;;;;;;;;4891632;29;20707;-77
2021/05/18 00:51:42;;;;;;;1.40;0.70;;;;;;;;;;4873467;29;20240;-77
2021/05/18 00:54:19;;;;;;;0.80;0.80;;;;;;;;;;4861239;29;20217;-77
2021/05/18 00:59:37;;;;;;;1.03;0.70;;;;;;;;;;4851010;29;20736;-76
2021/05/18 01:02:05;;;;;;;1.50;0.80;;;;;;;;;;4864099;29;20238;-78
2021/05/18 01:04:40;;;;;;;1.27;0.60;;;;;;;;;;4869459;29;20226;-76
2021/05/18 01:07:09;;;;;;;0.60;0.60;;;;;;;;;;4881389;29;20247;-78
2021/05/18 01:09:37;;;;;;;0.80;0.50;;;;;;;;;;4854500;29;20238;-77
2021/05/18 01:12:06;;;;;;;0.50;0.50;;;;;;;;;;4872554;29;20234;-77
2021/05/18 01:14:34;;;;;;;0.90;0.70;;;;;;;;;;4868101;29;20236;-76
2021/05/18 01:17:03;;;;;;;1.00;0.50;;;;;;;;;;4883665;29;20240;-77
2021/05/18 01:19:31;;;;;;;2.67;0.80;;;;;;;;;;4882349;29;20248;-77
2021/05/18 01:22:03;;;;;;;1.07;0.70;;;;;;;;;;4859690;29;20240;-77
2021/05/18 01:24:37;;;;;;;0.93;0.70;;;;;;;;;;4884988;29;20739;-77
2021/05/18 01:27:05;;;;;;;0.83;0.63;;;;;;;;;;4873261;29;20237;-77
2021/05/18 01:29:34;;;;;;;2.37;0.70;;;;;;;;;;4867421;29;20252;-78
2021/05/18 01:32:07;;;;;;;0.93;0.70;;;;;;;;;;4880457;29;20229;-76
2021/05/18 01:34:35;;;;;;;1.63;0.77;;;;;;;;;;4876400;29;20585;-77
2021/05/18 01:37:04;;;;;;;0.73;0.60;;;;;;;;;;4879120;29;20233;-77
2021/05/18 01:45:12;;;;;;;0.80;0.50;;;;;;;;;;4876210;29;20715;-77
2021/05/18 01:47:45;;;;;;;1.33;0.57;;;;;;;;;;4880742;29;20231;-77
2021/05/18 01:50:16;;;;;;;0.97;0.60;;;;;;;;;;4884571;29;20237;-77
2021/05/18 01:52:45;;;;;;;0.97;0.60;;;;;;;;;;4859003;29;20577;-78
2021/05/18 01:55:18;;;;;;;1.93;0.70;;;;;;;;;;4885756;29;20237;-78
2021/05/18 01:57:46;;;;;;;0.93;0.60;;;;;;;;;;4870791;29;20226;-77
2021/05/18 02:00:18;;;;;;;4.03;0.70;;;;;;;;;;4872696;29;20758;-76
2021/05/18 02:02:52;;;;;;;1.23;0.60;;;;;;;;;;4887359;29;20239;-77
2021/05/18 02:05:29;;;;;;;0.50;0.50;;;;;;;;;;4886493;29;20234;-77
2021/05/18 02:08:18;;;;;;;0.67;0.60;;;;;;;;;;4884466;29;20248;-77
2021/05/18 02:10:51;;;;;;;1.70;0.70;;;;;;;;;;4888364;29;20233;-78
2021/05/18 02:13:20;;;;;;;0.50;0.50;;;;;;;;;;4892555;29;20609;-77
2021/05/18 02:15:53;;;;;;;0.67;0.60;;;;;;;;;;4872066;29;20226;-78
2021/05/18 02:18:37;;;;;;;1.43;0.70;;;;;;;;;;4871477;29;20229;-77
2021/05/18 02:21:21;;;;;;;2.40;0.60;;;;;;;;;;4888541;29;20232;-79
2021/05/18 02:26:36;;;;;;;0.87;0.60;;;;;;;;;;4853366;29;20238;-77
2021/05/18 02:29:04;;;;;;;2.53;0.67;;;;;;;;;;4894817;29;20728;-79
2021/05/18 02:31:33;;;;;;;2.47;0.80;;;;;;;;;;4891000;29;20249;-80
2021/05/18 02:34:22;;;;;;;0.80;0.60;;;;;;;;;;4872660;29;20237;-78
2021/05/18 02:36:50;;;;;;;0.77;0.67;;;;;;;;;;4878373;29;20229;-77
2021/05/18 02:39:19;;;;;;;1.03;0.60;;;;;;;;;;4877674;29;20254;-76
2021/05/18 02:41:47;;;;;;;1.23;0.70;;;;;;;;;;4889330;29;20229;-77
2021/05/18 02:44:21;;;;;;;1.03;0.60;;;;;;;;;;4883025;29;20248;-76
2021/05/18 02:49:45;;;;;;;1.07;0.77;;;;;;;;;;4877578;29;20234;-77
2021/05/18 02:52:13;;;;;;;1.20;0.60;;;;;;;;;;4878982;29;20241;-77
2021/05/18 02:54:49;;;;;;;1.40;0.57;;;;;;;;;;4892362;29;20240;-77
2021/05/18 02:57:20;;;;;;;2.60;0.70;;;;;;;;;;4863773;29;20237;-77
2021/05/18 02:59:49;;;;;;;0.90;0.70;;;;;;;;;;4877222;29;20434;-76
2021/05/18 03:02:17;;;;;;;0.60;0.60;;;;;;;;;;4874837;29;20229;-77
2021/05/18 03:04:46;;;;;;;0.97;0.63;;;;;;;;;;4867612;29;20751;-77
2021/05/18 03:07:14;;;;;;;1.67;0.60;;;;;;;;;;4883373;29;20237;-77
2021/05/18 03:09:42;;;;;;;1.10;0.70;;;;;;;;;;4862113;29;20233;-77
2021/05/18 03:12:12;;;;;;;1.07;0.60;;;;;;;;;;4875831;29;20242;-76
2021/05/18 03:14:40;;;;;;;3.03;0.70;;;;;;;;;;4874981;29;20238;-78
2021/05/18 03:17:08;;;;;;;0.70;0.70;;;;;;;;;;4878735;29;20221;-78
2021/05/18 03:19:36;;;;;;;1.13;0.70;;;;;;;;;;4880137;29;20746;-80
2021/05/18 03:22:04;;;;;;;2.70;1.00;;;;;;;;;;4884945;29;20245;-77
2021/05/18 03:24:32;;;;;;;1.80;0.70;;;;;;;;;;4877784;29;20237;-77
2021/05/18 03:27:01;;;;;;;0.80;0.70;;;;;;;;;;4877078;29;20238;-78
2021/05/18 03:29:30;;;;;;;2.00;0.63;;;;;;;;;;4866516;29;20745;-78
2021/05/18 03:34:44;;;;;;;2.00;0.70;;;;;;;;;;4886471;29;20217;-79
2021/05/18 03:37:17;;;;;;;2.23;0.80;;;;;;;;;;4915850;29;20239;-77
2021/05/18 03:39:48;;;;;;;0.80;0.60;;;;;;;;;;4894602;29;20229;-77
2021/05/18 03:42:18;;;;;;;0.97;0.60;;;;;;;;;;4892162;29;20581;-79
2021/05/18 03:44:56;;;;;;;0.83;0.60;;;;;;;;;;4876358;29;20237;-77
2021/05/18 03:53:08;;;;;;;0.77;0.70;;;;;;;;;;4878310;29;20240;-80
2021/05/18 03:58:38;;;;;;;1.50;1.33;;;;;;;;;;4880303;29;20236;-77
2021/05/18 04:04:02;;;;;;;1.37;0.60;;;;;;;;;;4877181;29;20245;-78
2021/05/18 04:12:12;;;;;;;1.67;0.60;;;;;;;;;;4880694;29;20712;-80
2021/05/18 04:17:31;;;;;;;0.90;0.63;;;;;;;;;;4887414;29;20237;-78
2021/05/18 04:20:10;;;;;;;0.70;0.70;;;;;;;;;;4892043;29;20238;-77
2021/05/18 04:22:55;;;;;;;2.70;0.60;;;;;;;;;;4863266;29;20236;-78
2021/05/18 04:48:27;;;;;;;2.30;0.50;;;;;;;;;;4888441;29;20242;-78
2021/05/18 04:51:07;;;;;;;1.23;0.60;;;;;;;;;;4890469;29;20225;-78
2021/05/18 04:53:47;;;;;;;1.90;0.50;;;;;;;;;;4877121;29;20234;-78
2021/05/18 04:59:05;;;;;;;1.23;0.40;;;;;;;;;;4891246;29;20233;-78
2021/05/18 05:01:44;;;;;;;0.70;0.57;;;;;;;;;;4877864;29;20226;-78
2021/05/18 05:04:21;;;;;;;0.50;0.50;;;;;;;;;;4878904;29;20229;-79
2021/05/18 05:06:54;;;;;;;1.90;0.60;;;;;;;;;;4858505;29;20259;-79
2021/05/18 05:09:25;;;;;;;1.00;0.57;;;;;;;;;;4862233;29;20240;-78
2021/05/18 05:14:40;;;;;;;1.30;0.60;;;;;;;;;;4861895;29;20241;-78
2021/05/18 05:17:08;;;;;;;1.50;0.70;;;;;;;;;;4872219;29;20612;-79
2021/05/18 05:19:36;;;;;;;1.17;0.60;;;;;;;;;;4876799;29;20238;-79
2021/05/18 05:22:06;;;;;;;2.70;0.90;;;;;;;;;;4901964;29;20222;-81
2021/05/18 05:24:34;;;;;;;3.77;1.00;;;;;;;;;;4892633;29;20230;-79
2021/05/18 05:27:02;;;;;;;1.33;0.70;;;;;;;;;;4872132;29;20230;-79
2021/05/18 05:29:30;;;;;;;1.17;0.67;;;;;;;;;;4870642;29;20249;-79
2021/05/18 05:31:58;;;;;;;1.63;0.70;;;;;;;;;;4868440;29;20622;-79
2021/05/18 05:34:27;;;;;;;1.23;0.60;;;;;;;;;;4868398;29;20234;-78
2021/05/18 05:36:55;;;;;;;4.00;1.33;;;;;;;;;;4895548;29;20229;-77
2021/05/18 05:39:24;;;;;;;1.50;0.77;;;;;;;;;;4874184;29;20245;-78
2021/05/18 05:41:53;;;;;;;0.77;0.60;;;;;;;;;;4880918;29;20236;-78
2021/05/18 05:44:21;;;;;;;1.53;0.70;;;;;;;;;;4876183;29;20233;-78
2021/05/18 05:46:49;;;;;;;1.27;0.67;;;;;;;;;;4874875;29;20229;-78
2021/05/18 05:49:18;;;;;;;0.60;0.60;;;;;;;;;;4875745;29;20244;-77
2021/05/18 05:51:46;;;;;;;0.73;0.70;;;;;;;;;;4885403;29;20304;-78
2021/05/18 05:54:14;;;;;;;1.77;0.80;;;;;;;;;;4873263;29;20236;-78
2021/05/18 05:56:43;;;;;;;9.10;0.90;;;;;;;;;;4867605;29;20237;-78
2021/05/18 05:59:12;;;;;;;1.53;0.70;;;;;;;;;;4875453;29;20246;-80
2021/05/18 06:01:40;;;;;;;1.90;0.80;;;;;;;;;;4861348;29;20229;-78
2021/05/18 06:04:08;;;;;;;2.10;0.90;;;;;;;;;;4861788;29;20233;-78
2021/05/18 06:06:36;;;;;;;2.43;0.83;;;;;;;;;;4874236;29;20234;-77
2021/05/18 06:09:05;;;;;;;0.97;0.70;;;;;;;;;;4847853;29;20256;-77
2021/05/18 06:11:36;;;;;;;1.77;0.60;;;;;;;;;;4856632;29;20253;-78
2021/05/18 06:14:13;;;;;;;1.50;0.70;;;;;;;;;;4853565;29;20233;-78
2021/05/18 06:17:06;;;;;;;3.50;0.60;;;;;;;;;;4851917;29;20225;-78
2021/05/18 06:47:31;;;;;;;0.60;0.50;;;;;;;;;;4856818;29;20284;-78
2021/05/18 06:50:10;;;;;;;0.70;0.50;;;;;;;;;;4878444;29;20617;-76
2021/05/18 06:52:39;;;;;;;1.13;0.60;;;;;;;;;;4848181;29;20259;-76
2021/05/18 06:55:09;;;;;;;0.70;0.70;;;;;;;;;;4853884;29;20225;-76
2021/05/18 06:57:42;;;;;;;0.63;0.63;;;;;;;;;;4876647;29;20225;-76
2021/05/18 07:00:12;;;;;;;0.93;0.63;;;;;;;;;;4879744;29;20236;-76
2021/05/18 07:02:43;;;;;;;0.67;0.60;;;;;;;;;;4861909;29;20229;-76
2021/05/18 07:05:16;;;;;;;1.17;0.60;;;;;;;;;;4869688;29;20596;-76
2021/05/18 07:07:46;;;;;;;0.73;0.70;;;;;;;;;;4863310;29;20240;-77
2021/05/18 07:10:14;;;;;;;0.93;0.70;;;;;;;;;;4873739;29;20714;-75
2021/05/18 07:12:43;;;;;;;1.40;0.60;;;;;;;;;;4875861;29;20702;-75
2021/05/18 07:15:12;;;;;;;0.93;0.60;;;;;;;;;;4874816;29;20236;-75
2021/05/18 07:17:41;;;;;;;0.80;0.70;;;;;;;;;;4872949;29;20228;-77
2021/05/18 07:20:17;;;;;;;2.70;0.83;;;;;;;;;;4885161;29;20229;-76
2021/05/18 07:22:45;;;;;;;0.70;0.70;;;;;;;;;;4884966;29;20237;-76
2021/05/18 07:25:13;;;;;;;1.10;0.60;;;;;;;;;;4892796;29;20236;-76
2021/05/18 07:27:41;;;;;;;0.90;0.80;;;;;;;;;;4871715;29;20242;-76
2021/05/18 07:30:13;;;;;;;3.03;0.60;;;;;;;;;;4866342;29;20244;-76
2021/05/18 07:32:42;;;;;;;2.43;0.90;;;;;;;;;;4870833;29;20221;-76
2021/05/18 07:35:12;;;;;;;3.53;1.17;;;;;;;;;;4871628;29;20596;-76
2021/05/18 07:37:39;;;;;;;2.07;1.00;;;;;;;;;;4872406;29;20237;-76
2021/05/18 07:40:09;;;;;;;3.23;0.90;;;;;;;;;;4883880;29;20248;-77
2021/05/18 07:42:37;;;;;;;1.73;0.77;;;;;;;;;;4873620;29;20229;-76
2021/05/18 07:45:07;;;;;;;3.80;1.33;;;;;;;;;;4890032;29;20233;-76
2021/05/18 07:47:37;;;;;;;1.23;0.67;;;;;;;;;;4875103;29;20236;-77
2021/05/18 07:50:09;;;;;;;1.50;0.50;;;;;;;;;;4865268;29;20230;-76
2021/05/18 08:06:21;;;;;;;1.70;0.87;;;;;;;;;;4868871;29;20614;-76
2021/05/18 08:08:49;;;;;;;1.03;0.70;;;;;;;;;;4865112;29;20685;-76
2021/05/18 08:11:17;;;;;;;2.70;0.60;;;;;;;;;;4867707;29;20238;-76
2021/05/18 08:13:55;;;;;;;0.77;0.60;;;;;;;;;;4872872;29;20217;-76
2021/05/18 08:19:28;;;;;;;10.73;1.30;;;;;;;;;;4876699;29;20607;-77
2021/05/18 09:48:21;;;;;;;0.77;0.77;;;;;;;;;;4873212;29;20234;-76
2021/05/18 10:36:02;;;;;;;0.50;0.50;;;;;;;;;;4865655;29;22953;-77
2021/05/18 10:38:34;;;;;;;0.90;0.50;;;;;;;;;;4869058;29;20734;-77
2021/05/18 10:41:12;;;;;;;0.83;0.57;;;;;;;;;;4868884;29;20240;-77
2021/05/18 10:43:41;;;;;;;1.57;0.70;;;;;;;;;;4869922;29;20225;-78
2021/05/18 10:46:17;;;;;;;0.60;0.60;;;;;;;;;;4869328;29;20229;-77
2021/05/18 10:49:29;;;;;;;1.37;0.60;;;;;;;;;;4880944;29;21002;-77
2021/05/18 10:52:00;;;;;;;0.67;0.63;;;;;;;;;;4863007;29;20236;-78
2021/05/18 10:54:35;;;;;;;3.90;2.57;;;;;;;;;;4870111;29;20739;-77
2021/05/18 10:57:22;;;;;;;1.27;0.70;;;;;;;;;;4884724;29;20714;-77
2021/05/18 11:00:04;;;;;;;0.70;0.70;;;;;;;;;;5125283;27;20659;-76
2021/05/18 11:02:34;;;;;;;2.23;0.90;;;;;;;;;;5087985;28;20599;-76
2021/05/18 11:05:05;;;;;;;2.60;0.87;;;;;;;;;;5080369;27;20218;-76
2021/05/18 11:07:35;;;;;;;1.77;0.80;;;;;;;;;;5097460;27;20213;-76
2021/05/18 11:10:06;;;;;;;1.48;0.70;;;;;;;;;;5096933;27;20236;-76
2021/05/18 11:12:35;;;;;;;1.02;0.77;;;;;;;;;;5096868;28;20218;-76
2021/05/18 11:15:13;;;;;;;1.70;1.13;;;;;;;;;;5093418;27;20225;-76
2021/05/18 11:17:42;;;;;;;4.05;0.80;;;;;;;;;;5098441;28;20713;-77
2021/05/18 11:20:14;;;;;;;2.30;0.98;;;;;;;;;;5091575;28;20232;-76
2021/05/18 11:25:35;;;;;;;2.10;0.90;;;;;;;;;;5098683;28;20221;-77
2021/05/18 11:28:14;;;;;;;1.83;0.73;;;;;;;;;;5088530;27;20328;-76
2021/05/18 11:30:45;;;;;;;2.60;0.93;;;;;;;;;;5091443;27;20610;-76
2021/05/18 11:33:14;;;;;;;2.50;0.90;;;;;;;;;;5084097;27;20225;-78
2021/05/18 11:35:42;;;;;;;1.57;0.70;;;;;;;;;;5094564;27;20216;-77
2021/05/18 11:38:14;;;;;;;1.20;0.83;;;;;;;;;;5092704;27;20231;-77
2021/05/18 11:40:45;;;;;;;1.10;0.80;;;;;;;;;;5087796;28;20524;-76
2021/05/18 11:43:15;;;;;;;0.93;0.83;;;;;;;;;;5093295;27;20225;-76
2021/05/18 11:45:44;;;;;;;0.80;0.70;;;;;;;;;;5097832;28;20225;-76
2021/05/18 11:48:13;;;;;;;1.20;0.80;;;;;;;;;;5096925;27;20224;-76
2021/05/18 11:50:45;;;;;;;1.20;0.80;;;;;;;;;;5096357;27;20229;-76
2021/05/18 11:53:34;;;;;;;1.30;0.90;;;;;;;;;;5094701;27;20222;-76
2021/05/18 11:56:25;;;;;;;1.17;0.97;;;;;;;;;;5090234;27;20225;-74
2021/05/18 11:59:02;;;;;;;1.00;0.80;;;;;;;;;;5090470;27;20229;-74
2021/05/18 12:01:31;;;;;;;1.00;0.80;;;;;;;;;;5087683;27;20239;-73
2021/05/18 12:04:08;;;;;;;1.60;0.90;;;;;;;;;;5066976;28;20242;-73
2021/05/18 12:06:40;;;;;;;1.25;1.00;;;;;;;;;;5085894;27;20226;-73
2021/05/18 12:09:10;;;;;;;0.98;0.88;;;;;;;;;;5084778;27;20710;-74
2021/05/18 12:11:38;;;;;;;1.65;1.05;;;;;;;;;;5074279;28;20226;-74
2021/05/18 12:14:07;;;;;;;1.80;1.02;;;;;;;;;;5064100;28;20611;-75
2021/05/18 12:16:42;;;;;;;2.25;1.20;;;;;;;;;;5082253;28;20231;-74
2021/05/18 12:19:12;;;;;;;1.77;1.13;;;;;;;;;;5077859;28;20234;-75
2021/05/18 12:21:41;;;;;;;2.83;1.00;;;;;;;;;;5075506;27;20229;-75
2021/05/18 12:24:12;;;;;;;1.30;1.13;;;;;;;;;;5070002;27;20699;-75
2021/05/18 12:26:49;;;;;;;1.27;1.00;;;;;;;;;;5075622;28;20221;-75
2021/05/18 12:29:33;;;;;;;2.55;1.45;;;;;;;;;;5078847;28;20248;-74
2021/05/18 12:32:19;;;;;;;1.67;1.10;;;;;;;;;;5077141;28;20735;-75
2021/05/18 12:34:50;;;;;;;2.45;1.33;;;;;;;;;;5064874;28;20476;-75
2021/05/18 12:37:30;;;;;;;2.30;0.93;;;;;;;;;;5086196;28;20229;-76
2021/05/18 12:39:59;;;;;;;3.15;1.67;;;;;;;;;;5072830;28;20241;-75
2021/05/18 12:42:28;;;;;;;2.67;1.30;;;;;;;;;;5078322;28;20226;-74
2021/05/18 12:44:59;;;;;;;2.75;1.35;;;;;;;;;;5074882;28;20237;-75
2021/05/18 12:47:35;;;;;;;2.00;1.30;;;;;;;;;;5082492;28;20256;-74
2021/05/18 12:50:08;;;;;;;1.83;1.38;;;;;;;;;;5065471;28;20230;-75
2021/05/18 12:52:39;;;;;;;2.55;1.30;;;;;;;;;;5088887;28;20715;-75
2021/05/18 12:55:15;;;;;;;5.47;1.30;;;;;;;;;;5073628;28;20233;-75
2021/05/18 12:57:51;;;;;;;3.85;1.25;;;;;;;;;;5077046;28;20214;-75
2021/05/18 13:00:30;;;;;;;2.30;1.10;;;;;;;;;;5075293;28;20342;-75
2021/05/18 13:03:10;;;;;;;1.98;0.95;;;;;;;;;;5054431;28;20222;-75
2021/05/18 13:05:39;;;;;;;1.30;1.10;;;;;;;;;;5062103;28;20222;-74
2021/05/18 13:08:15;;;;;;;3.08;1.20;;;;;;;;;;5084146;28;20225;-74
2021/05/18 13:10:52;;;;;;;1.70;1.20;;;;;;;;;;5073004;28;20597;-75
2021/05/18 13:13:22;;;;;;;2.95;1.20;;;;;;;;;;5076814;28;20221;-75
2021/05/18 13:15:52;;;;;;;1.30;0.80;;;;;;;;;;5078380;28;20245;-74
2021/05/18 13:18:21;;;;;;;1.77;0.95;;;;;;;;;;5059578;28;20382;-75
2021/05/18 13:20:53;;;;;;;3.72;0.95;;;;;;;;;;5073587;28;22405;-74
2021/05/18 13:23:32;;;;;;;3.33;1.27;;;;;;;;;;5068050;28;20241;-75
2021/05/18 13:28:46;;;;;;;2.22;1.13;;;;;;;;;;5099531;28;21374;-75
2021/05/18 13:31:15;;;;;;;3.35;1.00;;;;;;;;;;5070550;27;20218;-75
2021/05/18 13:33:44;;;;;;;2.15;1.25;;;;;;;;;;5069045;27;20235;-75
2021/05/18 13:36:12;;;;;;;4.18;1.48;;;;;;;;;;5065485;27;20690;-75
2021/05/18 13:38:40;;;;;;;2.75;1.30;;;;;;;;;;5073629;28;20225;-75
2021/05/18 13:41:08;;;;;;;2.65;1.10;;;;;;;;;;5063470;27;20223;-75
2021/05/18 13:43:36;;;;;;;2.63;1.42;;;;;;;;;;5067799;27;20226;-75
2021/05/18 13:46:05;;;;;;;2.85;1.42;;;;;;;;;;5080065;28;20571;-75
2021/05/18 13:48:33;;;;;;;5.20;1.45;;;;;;;;;;5072466;28;20222;-75
2021/05/18 13:51:02;;;;;;;10.80;8.25;;;;;;;;;;5073274;27;20603;-76
2021/05/18 13:53:48;;;;;;;3.40;1.85;;;;;;;;;;5074685;27;20611;-75
2021/05/18 13:56:22;;;;;;;2.55;1.23;;;;;;;;;;5068035;27;20283;-75
2021/05/18 13:58:51;;;;;;;2.47;1.10;;;;;;;;;;5070293;27;20223;-75
2021/05/18 14:01:20;;;;;;;3.83;1.63;;;;;;;;;;5089341;28;20218;-75
2021/05/18 14:03:48;;;;;;;1.92;1.00;;;;;;;;;;5077328;28;20233;-75
2021/05/18 14:06:17;;;;;;;2.28;1.10;;;;;;;;;;5081963;28;20229;-75
2021/05/18 14:08:45;;;;;;;2.40;1.27;;;;;;;;;;5077842;28;20754;-75
2021/05/18 14:11:15;;;;;;;3.72;1.40;;;;;;;;;;5078797;28;20214;-75
2021/05/18 14:13:45;;;;;;;1.23;1.10;;;;;;;;;;5057000;28;20576;-76
2021/05/18 14:16:16;;;;;;;3.47;1.48;;;;;;;;;;5060905;28;22137;-75
2021/05/18 14:18:45;;;;;;;3.17;1.40;;;;;;;;;;5074907;28;20219;-76
2021/05/18 14:21:13;;;;;;;1.67;1.10;;;;;;;;;;5055005;28;20257;-76
2021/05/18 14:23:46;;;;;;;2.67;1.25;;;;;;;;;;5060627;28;20694;-75
2021/05/18 14:26:15;;;;;;;3.13;1.50;;;;;;;;;;5076011;28;20218;-75
2021/05/18 14:28:44;;;;;;;2.30;1.20;;;;;;;;;;5061096;28;20230;-76
2021/05/18 14:31:13;;;;;;;2.40;1.30;;;;;;;;;;5074766;28;20230;-76
2021/05/18 14:33:42;;;;;;;3.70;1.40;;;;;;;;;;5077451;28;20225;-75
2021/05/18 14:36:11;;;;;;;4.10;1.80;;;;;;;;;;5047002;28;20726;-75
2021/05/18 14:39:03;;;;;;;4.50;1.40;;;;;;;;;;5073022;28;20230;-76
2021/05/18 14:44:21;;;;;;;2.30;1.20;;;;;;;;;;5086084;27;20223;-75
2021/05/18 14:46:55;;;;;;;4.07;1.40;;;;;;;;;;5074736;28;20222;-75
2021/05/18 14:55:02;;;;;;;2.92;1.08;;;;;;;;;;5070532;28;20305;-75
2021/05/18 14:57:30;;;;;;;2.40;1.48;;;;;;;;;;5057811;28;20240;-75
2021/05/18 14:59:58;;;;;;;2.72;1.45;;;;;;;;;;5058246;27;20231;-75
2021/05/18 15:02:26;;;;;;;6.18;1.70;;;;;;;;;;5070365;28;20215;-75
2021/05/18 15:04:55;;;;;;;3.55;1.40;;;;;;;;;;5108580;27;20394;-76
2021/05/18 15:07:23;;;;;;;3.35;1.60;;;;;;;;;;5070648;28;20226;-75
2021/05/18 15:09:52;;;;;;;3.45;1.50;;;;;;;;;;5079819;28;20230;-75
2021/05/18 15:12:22;;;;;;;2.67;1.35;;;;;;;;;;5091810;28;20624;-75
2021/05/18 15:14:50;;;;;;;2.85;1.20;;;;;;;;;;5086621;28;20678;-75
2021/05/18 15:17:18;;;;;;;2.17;1.50;;;;;;;;;;5070130;28;20238;-76
2021/05/18 15:19:50;;;;;;;4.30;1.50;;;;;;;;;;5073372;28;20229;-75
2021/05/18 15:22:19;;;;;;;4.13;1.40;;;;;;;;;;5063464;28;20214;-75
2021/05/18 15:24:47;;;;;;;8.00;1.33;;;;;;;;;;5069822;28;20222;-75
2021/05/18 15:27:15;;;;;;;3.17;1.15;;;;;;;;;;5068134;28;20244;-75
2021/05/18 15:29:44;;;;;;;3.60;1.33;;;;;;;;;;5069872;28;20226;-75
2021/05/18 15:32:13;;;;;;;4.85;1.30;;;;;;;;;;5067224;28;20230;-75
2021/05/18 15:34:41;;;;;;;5.18;1.00;;;;;;;;;;5050138;28;20704;-75
2021/05/18 15:37:10;;;;;;;3.63;1.50;;;;;;;;;;5079363;28;20222;-76
2021/05/18 15:39:38;;;;;;;6.07;1.40;;;;;;;;;;5056464;28;20234;-76
2021/05/18 15:42:07;;;;;;;2.25;1.23;;;;;;;;;;5069770;28;20229;-75
2021/05/18 15:44:35;;;;;;;4.95;1.40;;;;;;;;;;5052910;28;20237;-75
2021/05/18 15:47:05;;;;;;;3.25;1.20;;;;;;;;;;5076794;28;20225;-75
2021/05/18 15:49:33;;;;;;;2.80;1.33;;;;;;;;;;5078213;28;20320;-75
2021/05/18 15:52:03;;;;;;;2.85;1.13;;;;;;;;;;5082769;28;20222;-75
2021/05/18 15:54:31;;;;;;;9.77;3.83;;;;;;;;;;5055147;28;20229;-74
2021/05/18 15:57:00;;;;;;;2.60;1.23;;;;;;;;;;5079750;28;20224;-75
2021/05/18 15:59:28;;;;;;;3.17;1.38;;;;;;;;;;5072679;28;22669;-75
2021/05/18 16:01:56;;;;;;;2.70;1.33;;;;;;;;;;5074183;28;20237;-74
2021/05/18 16:04:25;;;;;;;3.25;1.20;;;;;;;;;;5070455;28;20233;-75
2021/05/18 16:06:53;;;;;;;3.08;1.10;;;;;;;;;;5082446;28;20703;-74
2021/05/18 16:09:21;;;;;;;3.53;1.40;;;;;;;;;;5072757;28;20798;-75
2021/05/18 16:11:49;;;;;;;4.35;1.38;;;;;;;;;;5076052;28;20222;-76
2021/05/18 16:14:17;;;;;;;4.90;1.30;;;;;;;;;;5067542;28;20225;-76
2021/05/18 16:16:47;;;;;;;4.78;1.23;;;;;;;;;;5082861;28;20222;-75
2021/05/18 16:19:17;;;;;;;1.80;0.90;;;;;;;;;;5056508;28;20254;-75
2021/05/18 16:21:47;;;;;;;2.28;1.10;;;;;;;;;;5080760;28;20702;-75
2021/05/18 16:24:15;;;;;;;2.10;0.98;;;;;;;;;;5071671;28;20695;-74
2021/05/18 16:26:44;;;;;;;5.25;1.48;;;;;;;;;;5077213;28;20225;-75
2021/05/18 16:29:13;;;;;;;4.40;1.27;;;;;;;;;;5059825;28;20234;-76
2021/05/18 16:31:42;;;;;;;3.00;1.23;;;;;;;;;;5063690;28;20691;-75
2021/05/18 16:34:10;;;;;;;4.90;1.20;;;;;;;;;;5065815;28;20218;-76
2021/05/18 16:36:39;;;;;;;2.42;1.00;;;;;;;;;;5061874;28;20226;-76
2021/05/18 16:39:09;;;;;;;3.17;1.20;;;;;;;;;;5078009;28;20229;-76
2021/05/18 16:41:39;;;;;;;4.23;1.20;;;;;;;;;;5057476;28;20479;-76
2021/05/18 16:44:10;;;;;;;4.78;1.02;;;;;;;;;;5077566;28;20226;-75
2021/05/18 16:46:39;;;;;;;6.60;1.50;;;;;;;;;;5075842;28;20602;-74
2021/05/18 16:49:08;;;;;;;4.70;1.20;;;;;;;;;;5074854;28;20223;-75
2021/05/18 16:51:37;;;;;;;4.47;1.40;;;;;;;;;;5078070;28;20304;-76
2021/05/18 16:54:06;;;;;;;3.40;1.10;;;;;;;;;;5054390;28;20735;-76
2021/05/18 16:56:35;;;;;;;4.30;1.50;;;;;;;;;;5057963;28;20739;-75
2021/05/18 16:59:04;;;;;;;4.40;1.87;;;;;;;;;;5090705;27;20241;-76
2021/05/18 17:01:33;;;;;;;5.93;1.43;;;;;;;;;;5068132;28;20226;-76
2021/05/18 17:04:18;;;;;;;3.40;1.43;;;;;;;;;;5075584;28;20225;-75
2021/05/18 17:06:49;;;;;;;3.60;1.10;;;;;;;;;;5060870;28;20222;-75
2021/05/18 17:09:17;;;;;;;1.47;0.90;;;;;;;;;;5078554;28;20233;-76
2021/05/18 17:11:46;;;;;;;4.60;1.33;;;;;;;;;;5080300;28;20219;-75
2021/05/18 17:14:14;;;;;;;3.53;1.17;;;;;;;;;;5074923;28;20218;-76
2021/05/18 17:16:42;;;;;;;5.80;1.07;;;;;;;;;;5056497;28;20230;-75
2021/05/18 17:19:10;;;;;;;1.47;0.70;;;;;;;;;;5052352;28;20238;-75
2021/05/18 17:21:39;;;;;;;5.33;1.20;;;;;;;;;;5090794;28;20214;-76
2021/05/18 17:24:09;;;;;;;3.30;1.00;;;;;;;;;;5091283;28;20402;-75
2021/05/18 17:26:37;;;;;;;3.63;1.20;;;;;;;;;;5073700;28;20222;-75
2021/05/18 17:29:06;;;;;;;3.30;1.33;;;;;;;;;;5073847;28;20218;-75
2021/05/18 17:31:35;;;;;;;1.73;0.90;;;;;;;;;;5073530;28;20214;-76
2021/05/18 17:34:04;;;;;;;5.30;1.97;;;;;;;;;;5062470;28;20227;-75
2021/05/18 17:36:32;;;;;;;3.07;1.87;;;;;;;;;;5075429;28;20225;-76
2021/05/18 17:39:00;;;;;;;5.87;1.30;;;;;;;;;;5066820;28;20246;-75
2021/05/18 17:41:28;;;;;;;2.17;1.30;;;;;;;;;;5066746;28;20257;-76
2021/05/18 17:43:56;;;;;;;3.23;1.30;;;;;;;;;;5058824;28;20594;-76
2021/05/18 17:46:27;;;;;;;2.07;1.17;;;;;;;;;;5048937;28;20230;-77
2021/05/18 17:48:55;;;;;;;2.00;1.30;;;;;;;;;;5060250;27;20222;-76
2021/05/18 17:51:23;;;;;;;2.43;1.00;;;;;;;;;;5064472;28;20229;-76
2021/05/18 17:53:52;;;;;;;3.23;1.10;;;;;;;;;;5068811;28;20230;-75
2021/05/18 17:56:20;;;;;;;5.43;1.67;;;;;;;;;;5087119;27;20222;-76
2021/05/18 17:58:48;;;;;;;2.93;1.03;;;;;;;;;;5083097;28;20456;-76
2021/05/18 18:01:22;;;;;;;3.77;1.30;;;;;;;;;;5077130;28;20237;-77
2021/05/18 18:03:52;;;;;;;6.80;3.20;;;;;;;;;;5088132;28;20238;-76
2021/05/18 18:06:20;;;;;;;4.37;1.70;;;;;;;;;;5099095;28;20218;-75
2021/05/18 18:08:49;;;;;;;4.53;1.60;;;;;;;;;;5107644;28;20226;-75
2021/05/18 18:11:17;;;;;;;3.00;0.90;;;;;;;;;;5084664;28;20240;-77
2021/05/18 18:13:45;;;;;;;4.30;1.33;;;;;;;;;;5100026;28;20223;-77
2021/05/18 18:16:14;;;;;;;4.17;1.43;;;;;;;;;;5088208;27;20224;-76
2021/05/18 18:18:42;;;;;;;4.93;1.90;;;;;;;;;;5084034;28;20241;-76
2021/05/18 18:21:11;;;;;;;2.10;1.20;;;;;;;;;;5083450;28;20221;-75
2021/05/18 18:23:40;;;;;;;2.67;1.20;;;;;;;;;;5071516;28;20235;-77
2021/05/18 18:26:08;;;;;;;4.00;1.40;;;;;;;;;;5077292;28;20649;-77
2021/05/18 18:28:36;;;;;;;2.80;1.20;;;;;;;;;;5079249;28;20494;-76
2021/05/18 18:31:04;;;;;;;1.97;1.03;;;;;;;;;;5088134;28;20241;-77
2021/05/18 18:33:32;;;;;;;3.73;1.10;;;;;;;;;;5087401;28;20230;-77
2021/05/18 18:36:01;;;;;;;3.23;1.10;;;;;;;;;;5072901;28;20236;-77
2021/05/18 18:38:30;;;;;;;2.30;0.90;;;;;;;;;;5067648;28;20222;-77
2021/05/18 18:40:58;;;;;;;2.70;0.93;;;;;;;;;;5034779;28;20240;-77
2021/05/18 18:43:26;;;;;;;5.20;2.67;;;;;;;;;;5061212;28;20231;-76
2021/05/18 18:45:54;;;;;;;5.43;1.10;;;;;;;;;;5066129;28;20226;-77
2021/05/18 18:48:22;;;;;;;4.27;1.70;;;;;;;;;;5056218;28;20234;-76
2021/05/18 18:50:56;;;;;;;4.13;1.10;;;;;;;;;;5050406;28;20230;-77
2021/05/18 18:53:33;;;;;;;3.33;1.10;;;;;;;;;;5044550;28;20229;-76
2021/05/18 18:56:03;;;;;;;4.90;1.20;;;;;;;;;;5057632;28;20232;-77
2021/05/18 18:58:31;;;;;;;4.73;1.80;;;;;;;;;;5069490;28;20245;-77
2021/05/18 19:00:59;;;;;;;1.67;1.10;;;;;;;;;;5076630;28;20211;-76
2021/05/18 19:03:29;;;;;;;5.30;1.30;;;;;;;;;;5076036;28;20234;-76
2021/05/18 19:06:04;;;;;;;4.07;1.20;;;;;;;;;;5050552;28;20903;-77
2021/05/18 19:11:36;;;;;;;4.03;1.00;;;;;;;;;;5083120;28;20217;-76
2021/05/18 19:14:05;;;;;;;2.27;1.10;;;;;;;;;;5058385;28;20219;-76
2021/05/18 19:16:40;;;;;;;2.43;1.10;;;;;;;;;;5067468;28;20222;-77
2021/05/18 19:19:09;;;;;;;1.83;1.10;;;;;;;;;;5059736;28;20234;-76
2021/05/18 19:21:37;;;;;;;2.77;1.00;;;;;;;;;;5072619;28;20617;-77
2021/05/18 19:24:06;;;;;;;2.80;0.77;;;;;;;;;;5054126;28;20239;-76
2021/05/18 19:26:35;;;;;;;2.77;1.20;;;;;;;;;;5064933;28;20234;-76
2021/05/18 19:29:03;;;;;;;1.50;0.90;;;;;;;;;;5072870;28;20435;-77